FALA

Lanseria Airport

Johannesburg, South Africa
TAF FALA 192200Z 2000/2024 15008KT CAVOK BECMG 2007/2009 04010KT TX30/2013Z TN12/2004Z
Issued Valid From Valid To
Sep-19 @ 22:00 UTC
(3 hours ago)
Sep-20 @ 00:00 UTC
(41 minutes ago)
Sep-21 @ 00:00 UTC
(in 23 hours)
Sep-20 @ 00:00 to Sep-20 @ 07:00
TAF FALA 192200Z 2000/2024 15008KT CAVOK
Wind Visibility Clouds Conditions
150° at 8 knots 10,000+ meters
  • No significant clouds
Becoming Sep-20 @ 07:00 to Sep-21 @ 00:00
BECMG 2007/2009 04010KT TX30/2013Z TN12/2004Z
Wind Visibility Clouds Conditions
40° at 10 knots 10,000+ meters
  • No significant clouds
TAF FALA 192200Z 2000/2024 15008KT CAVOK BECMG 2007/2009 04010KT TX30/2013Z TN12/2004Z
Issued Sep-19 @ 22:00 UTC
(3 hours ago)
Valid From Sep-20 @ 00:00 UTC
(41 minutes ago)
Valid To Sep-21 @ 00:00 UTC
(in 23 hours)
Sep-20 @ 00:00 - Sep-20 @ 07:00
Wind Visibility
150° at 8 knots 10,000+ meters
Clouds
  • No significant clouds
Conditions
Becoming Sep-20 @ 07:00 - Sep-21 @ 00:00
Wind Visibility
40° at 10 knots 10,000+ meters
Clouds
  • No significant clouds
Conditions